Time;durP1;ratioP1;P1;durP2;ratioP2;P2;SDS_P1;SDS_P2;PMS_P1;PMS_P2;Temp;Humidity;BMP_temperature;BMP_pressure;BME280_temperature;BME280_humidity;BME280_pressure;Samples;Min_cycle;Max_cycle;Signal;HPM_P1;HPM_P2
2021/12/02 00:00:33;;;;;;;3.50;1.88;;;4.10;99.90;;;;;;5029163;28;20111;-86
2021/12/02 00:02:59;;;;;;;3.33;1.95;;;4.00;99.90;;;;;;5030903;28;20025;-87
2021/12/02 00:05:24;;;;;;;3.42;1.95;;;4.00;99.90;;;;;;5032504;28;20029;-87
2021/12/02 00:07:51;;;;;;;12.13;1.88;;;3.90;99.90;;;;;;5031498;28;20449;-86
2021/12/02 00:10:17;;;;;;;7.55;2.13;;;3.90;99.90;;;;;;5032689;28;20022;-87
2021/12/02 00:12:43;;;;;;;6.63;2.40;;;3.90;99.90;;;;;;5032655;28;20025;-86
2021/12/02 00:15:17;;;;;;;6.28;2.03;;;3.80;99.90;;;;;;5032257;28;20064;-86
2021/12/02 00:17:52;;;;;;;6.25;2.40;;;3.80;99.90;;;;;;5017092;28;20026;-86
2021/12/02 00:23:28;;;;;;;6.15;2.20;;;3.70;99.90;;;;;;5033867;28;20052;-86
2021/12/02 00:25:56;;;;;;;7.22;2.53;;;3.70;99.90;;;;;;5032808;28;20060;-87
2021/12/02 00:28:25;;;;;;;10.23;2.60;;;3.70;99.90;;;;;;5032385;28;20490;-86
2021/12/02 00:30:53;;;;;;;11.88;2.40;;;3.80;99.90;;;;;;5015857;28;20065;-87
2021/12/02 00:33:19;;;;;;;11.88;2.63;;;3.80;99.90;;;;;;5032116;28;20033;-86
2021/12/02 00:35:46;;;;;;;9.27;3.10;;;3.80;99.90;;;;;;5015587;28;20029;-87
2021/12/02 00:38:13;;;;;;;6.50;2.42;;;3.80;99.90;;;;;;5015607;28;20497;-86
2021/12/02 00:40:40;;;;;;;8.80;2.30;;;3.80;99.90;;;;;;5032481;28;20026;-86
2021/12/02 00:43:06;;;;;;;7.68;2.50;;;3.80;99.90;;;;;;5015728;28;20033;-87
2021/12/02 00:45:32;;;;;;;7.20;2.25;;;3.80;99.90;;;;;;5031845;28;20095;-87
2021/12/02 00:48:00;;;;;;;10.30;3.40;;;3.80;99.90;;;;;;5031991;28;20109;-87
2021/12/02 00:50:26;;;;;;;6.25;2.60;;;3.90;99.90;;;;;;5015550;28;20025;-86
2021/12/02 00:52:53;;;;;;;8.70;2.92;;;3.90;99.90;;;;;;5032053;28;20129;-86
2021/12/02 00:55:20;;;;;;;11.38;2.55;;;4.00;99.90;;;;;;5015428;28;20033;-87
2021/12/02 00:57:47;;;;;;;12.23;2.83;;;4.00;99.90;;;;;;5033057;28;20474;-87
2021/12/02 01:00:12;;;;;;;6.75;2.67;;;4.00;99.90;;;;;;5031963;28;20034;-87
2021/12/02 01:02:41;;;;;;;9.88;3.05;;;4.10;99.90;;;;;;5031745;28;20374;-86
2021/12/02 01:05:07;;;;;;;14.80;3.45;;;4.10;99.90;;;;;;5014932;28;20171;-87
2021/12/02 01:07:33;;;;;;;5.85;2.78;;;4.10;99.90;;;;;;5031264;28;20030;-87
2021/12/02 01:09:59;;;;;;;8.80;2.63;;;4.20;99.90;;;;;;4998538;28;20029;-87
2021/12/02 01:12:25;;;;;;;11.80;3.15;;;4.20;99.90;;;;;;5031517;28;20057;-87
2021/12/02 01:14:50;;;;;;;10.02;2.72;;;4.20;99.90;;;;;;5014820;28;20111;-86
2021/12/02 01:17:16;;;;;;;7.75;3.20;;;4.20;99.90;;;;;;5031265;28;20180;-86
2021/12/02 01:19:41;;;;;;;8.05;3.15;;;4.20;99.90;;;;;;5031853;28;20029;-87
2021/12/02 01:22:08;;;;;;;6.07;3.25;;;4.20;99.90;;;;;;5031844;28;20026;-86
2021/12/02 01:24:35;;;;;;;9.07;2.75;;;4.30;99.90;;;;;;4997840;28;20120;-86
2021/12/02 01:27:05;;;;;;;8.25;2.80;;;4.30;99.90;;;;;;5030887;28;20029;-87
2021/12/02 01:29:32;;;;;;;11.53;3.27;;;4.30;99.90;;;;;;5031016;28;20056;-86
2021/12/02 01:32:03;;;;;;;5.97;3.22;;;4.30;99.90;;;;;;5031228;28;20029;-87
2021/12/02 01:34:30;;;;;;;12.63;3.13;;;4.30;99.90;;;;;;5030817;28;20498;-87
2021/12/02 01:36:55;;;;;;;5.35;3.53;;;4.30;99.90;;;;;;5029655;28;20048;-86
2021/12/02 01:39:22;;;;;;;10.02;3.47;;;4.40;99.90;;;;;;5030814;28;20033;-86
2021/12/02 01:41:52;;;;;;;7.03;3.80;;;4.30;99.90;;;;;;5014573;28;20064;-87
2021/12/02 01:44:20;;;;;;;8.98;3.50;;;4.40;99.90;;;;;;5030894;28;20032;-87
2021/12/02 01:46:49;;;;;;;11.30;3.38;;;4.40;99.90;;;;;;5030534;28;20029;-87
2021/12/02 01:49:16;;;;;;;8.50;3.25;;;4.40;99.90;;;;;;5031970;28;20429;-86
2021/12/02 01:51:51;;;;;;;5.80;2.90;;;4.40;99.90;;;;;;5032013;28;20028;-86
2021/12/02 01:54:20;;;;;;;8.77;3.40;;;4.40;99.90;;;;;;5030962;28;20118;-87
2021/12/02 01:57:05;;;;;;;10.05;3.60;;;4.40;99.90;;;;;;5030390;28;20029;-86
2021/12/02 01:59:36;;;;;;;12.93;3.50;;;4.40;99.90;;;;;;5030674;28;20052;-86
2021/12/02 02:02:04;;;;;;;6.25;3.47;;;4.40;99.90;;;;;;5030432;28;20053;-87
2021/12/02 02:04:29;;;;;;;10.63;3.45;;;4.40;99.90;;;;;;5030382;28;20034;-87
2021/12/02 02:07:14;;;;;;;6.85;3.05;;;4.40;99.90;;;;;;4997516;28;20045;-86
2021/12/02 02:09:41;;;;;;;10.30;2.88;;;4.50;99.90;;;;;;5030632;28;20044;-86
2021/12/02 02:12:09;;;;;;;11.32;2.65;;;4.40;99.90;;;;;;5014025;28;20025;-87
2021/12/02 02:14:36;;;;;;;4.72;2.78;;;4.40;99.90;;;;;;4994594;28;20034;-86
2021/12/02 02:17:10;;;;;;;5.53;2.33;;;4.50;99.90;;;;;;5010386;28;20030;-87
2021/12/02 02:19:35;;;;;;;6.97;2.72;;;4.50;99.90;;;;;;5010843;28;20030;-87
2021/12/02 02:22:01;;;;;;;11.07;2.40;;;4.50;99.90;;;;;;4994455;28;20076;-87
2021/12/02 02:24:28;;;;;;;7.63;2.30;;;4.50;99.90;;;;;;4994109;28;20062;-86
2021/12/02 02:26:53;;;;;;;7.65;2.53;;;4.50;99.90;;;;;;5010598;28;20022;-87
2021/12/02 02:29:19;;;;;;;5.13;2.50;;;4.50;99.90;;;;;;4994474;28;20360;-86
2021/12/02 02:31:45;;;;;;;6.95;2.20;;;4.50;99.90;;;;;;5010684;28;20036;-86
2021/12/02 02:34:12;;;;;;;12.23;3.03;;;4.50;99.90;;;;;;5010616;28;20427;-87
2021/12/02 02:36:48;;;;;;;6.72;2.20;;;4.50;99.90;;;;;;5011729;28;20025;-86
2021/12/02 02:39:14;;;;;;;7.20;1.70;;;4.50;99.90;;;;;;4995738;28;20121;-86
2021/12/02 02:41:42;;;;;;;13.10;2.00;;;4.50;99.90;;;;;;4994212;28;20121;-86
2021/12/02 02:44:11;;;;;;;4.03;1.60;;;4.40;99.90;;;;;;5011829;28;20026;-87
2021/12/02 02:46:41;;;;;;;9.85;1.95;;;4.40;99.90;;;;;;4994628;28;20050;-87
2021/12/02 02:49:12;;;;;;;4.32;1.85;;;4.40;99.90;;;;;;5013446;28;20021;-87
2021/12/02 02:51:40;;;;;;;2.30;1.33;;;4.40;99.90;;;;;;4998213;28;20060;-87
2021/12/02 02:54:09;;;;;;;8.27;2.05;;;4.40;99.90;;;;;;4998320;28;20026;-87
2021/12/02 02:56:45;;;;;;;3.40;1.55;;;4.40;99.90;;;;;;5014109;28;20114;-87
2021/12/02 03:06:57;;;;;;;5.63;1.83;;;4.30;99.90;;;;;;5015291;28;20546;-87
2021/12/02 03:12:12;;;;;;;6.03;1.65;;;4.30;99.90;;;;;;5015430;28;20026;-86
2021/12/02 03:17:13;;;;;;;4.00;2.13;;;4.30;99.90;;;;;;5033920;28;20537;-86
2021/12/02 03:19:43;;;;;;;3.10;1.55;;;4.30;99.90;;;;;;5034693;28;20057;-87
2021/12/02 03:22:10;;;;;;;6.25;1.80;;;4.30;99.90;;;;;;5017304;28;20065;-86
2021/12/02 03:24:36;;;;;;;4.85;1.70;;;4.30;99.90;;;;;;5032851;28;20517;-86
2021/12/02 03:27:02;;;;;;;8.30;1.88;;;4.30;99.90;;;;;;5033532;28;20029;-86
2021/12/02 03:29:28;;;;;;;4.20;1.90;;;4.30;99.90;;;;;;5050324;28;20460;-87
2021/12/02 03:31:53;;;;;;;4.95;2.35;;;4.30;99.90;;;;;;5016918;28;20037;-87
2021/12/02 03:34:19;;;;;;;5.18;1.95;;;4.30;99.90;;;;;;5033157;28;20025;-87
2021/12/02 03:36:45;;;;;;;10.40;2.35;;;4.30;99.90;;;;;;5028248;28;20388;-86
2021/12/02 03:39:11;;;;;;;9.32;1.88;;;4.30;99.90;;;;;;5012182;28;20553;-86
2021/12/02 03:41:39;;;;;;;5.05;2.60;;;4.30;99.90;;;;;;5012067;28;20490;-85
2021/12/02 03:44:05;;;;;;;8.00;2.30;;;4.40;99.90;;;;;;5024728;28;20134;-86
2021/12/02 03:46:31;;;;;;;6.68;2.42;;;4.40;99.90;;;;;;5014402;28;20525;-86
2021/12/02 03:48:57;;;;;;;10.45;2.70;;;4.40;99.90;;;;;;5031943;28;20030;-86
2021/12/02 03:51:23;;;;;;;9.85;2.78;;;4.30;99.90;;;;;;4999093;28;20033;-86
2021/12/02 03:53:49;;;;;;;6.38;2.80;;;4.30;99.90;;;;;;5032891;28;20033;-87
2021/12/02 03:56:15;;;;;;;12.30;3.20;;;4.30;99.90;;;;;;5010744;28;20030;-87
2021/12/02 03:58:43;;;;;;;9.40;2.83;;;4.30;99.90;;;;;;5011440;28;20038;-87
2021/12/02 04:01:10;;;;;;;8.77;3.05;;;4.30;99.90;;;;;;4978624;28;20053;-86
2021/12/02 04:03:36;;;;;;;7.65;3.03;;;4.30;99.90;;;;;;5013075;28;20040;-85
2021/12/02 04:06:03;;;;;;;7.25;2.28;;;4.40;99.90;;;;;;5027434;28;20030;-86
2021/12/02 04:08:41;;;;;;;9.10;2.83;;;4.40;99.90;;;;;;5028405;28;20025;-86
2021/12/02 04:16:35;;;;;;;4.15;2.30;;;4.40;99.90;;;;;;5032142;28;20030;-87
2021/12/02 04:19:04;;;;;;;8.45;2.42;;;4.40;99.90;;;;;;5020820;28;20038;-86
2021/12/02 04:21:30;;;;;;;6.43;2.42;;;4.40;99.90;;;;;;5047288;28;20037;-86
2021/12/02 04:23:56;;;;;;;13.02;3.28;;;4.40;99.90;;;;;;5028849;23;20433;-84
2021/12/02 04:26:21;;;;;;;13.00;2.60;;;4.40;99.90;;;;;;4977263;28;20034;-84
2021/12/02 04:28:47;;;;;;;11.77;3.30;;;4.40;99.90;;;;;;4979438;28;20030;-84
2021/12/02 04:31:13;;;;;;;15.00;3.47;;;4.40;99.90;;;;;;4995685;28;20037;-84
2021/12/02 04:33:38;;;;;;;11.20;3.45;;;4.40;99.90;;;;;;4979625;28;20519;-84
2021/12/02 04:36:06;;;;;;;9.93;3.20;;;4.40;99.90;;;;;;4994468;28;20022;-84
2021/12/02 04:38:32;;;;;;;9.73;3.30;;;4.40;99.90;;;;;;4979464;28;20026;-85
2021/12/02 04:40:57;;;;;;;10.52;2.90;;;4.40;99.90;;;;;;5013167;28;20653;-84
2021/12/02 04:43:23;;;;;;;6.97;2.78;;;4.40;99.90;;;;;;4995590;28;20045;-84
2021/12/02 04:45:49;;;;;;;12.05;3.10;;;4.40;99.90;;;;;;5020659;28;20080;-84
2021/12/02 04:48:16;;;;;;;7.75;3.17;;;4.40;99.90;;;;;;4994727;28;20022;-85
2021/12/02 04:50:42;;;;;;;14.63;3.08;;;4.40;99.90;;;;;;4994598;28;20026;-83
2021/12/02 04:53:08;;;;;;;9.25;3.03;;;4.50;99.90;;;;;;5012588;28;20107;-83
2021/12/02 04:55:34;;;;;;;12.60;3.05;;;4.50;99.90;;;;;;5011661;28;20061;-84
2021/12/02 04:57:59;;;;;;;12.32;3.05;;;4.50;99.90;;;;;;4978346;28;20065;-85
2021/12/02 05:00:25;;;;;;;11.40;3.63;;;4.50;99.90;;;;;;4995729;28;20121;-85
2021/12/02 05:02:51;;;;;;;9.50;3.00;;;4.40;99.90;;;;;;4995149;28;20080;-84
2021/12/02 05:05:17;;;;;;;10.98;3.40;;;4.50;99.90;;;;;;4977603;28;20053;-84
2021/12/02 05:07:43;;;;;;;10.93;3.95;;;4.50;99.90;;;;;;4978116;28;20556;-84
2021/12/02 05:10:09;;;;;;;8.05;3.05;;;4.40;99.90;;;;;;4978428;28;20445;-83
2021/12/02 05:12:34;;;;;;;5.95;3.13;;;4.40;99.90;;;;;;4978216;28;20061;-84
2021/12/02 05:15:01;;;;;;;6.38;2.88;;;4.40;99.90;;;;;;4977884;28;20121;-85
2021/12/02 05:17:27;;;;;;;6.85;3.00;;;4.40;99.90;;;;;;4977981;28;20030;-85
2021/12/02 05:19:52;;;;;;;7.22;2.42;;;4.30;99.90;;;;;;4978215;28;20034;-85
2021/12/02 05:22:18;;;;;;;4.93;2.45;;;4.30;99.90;;;;;;4978178;28;20073;-84
2021/12/02 05:24:44;;;;;;;7.43;2.60;;;4.30;99.90;;;;;;4993925;28;20112;-85
2021/12/02 05:27:12;;;;;;;8.75;2.95;;;4.30;99.90;;;;;;4977711;28;20450;-84
2021/12/02 05:29:38;;;;;;;5.65;2.53;;;4.30;99.90;;;;;;4994799;28;20057;-84
2021/12/02 05:32:04;;;;;;;5.80;2.67;;;4.20;99.90;;;;;;4994324;28;20029;-84
2021/12/02 05:34:29;;;;;;;7.38;2.60;;;4.30;99.90;;;;;;4977531;28;20498;-84
2021/12/02 05:36:55;;;;;;;7.60;3.13;;;4.30;99.90;;;;;;4994361;28;20029;-85
2021/12/02 05:39:20;;;;;;;9.65;3.20;;;4.20;99.90;;;;;;4978129;28;20037;-84
2021/12/02 05:41:46;;;;;;;4.75;2.63;;;4.20;99.90;;;;;;4978186;28;20132;-84
2021/12/02 05:44:11;;;;;;;7.20;2.35;;;4.20;99.90;;;;;;4993725;28;20038;-84
2021/12/02 05:46:37;;;;;;;10.23;3.13;;;4.20;99.90;;;;;;4977175;28;20022;-85
2021/12/02 05:49:03;;;;;;;8.43;2.83;;;4.20;99.90;;;;;;4978098;28;20450;-84
2021/12/02 05:51:29;;;;;;;7.70;3.50;;;4.20;99.90;;;;;;4977878;28;20048;-84
2021/12/02 05:53:54;;;;;;;14.63;3.30;;;4.20;99.90;;;;;;4978095;28;20398;-85
2021/12/02 05:56:20;;;;;;;7.85;2.88;;;4.20;99.90;;;;;;4961307;28;20026;-84
2021/12/02 05:58:46;;;;;;;12.95;3.28;;;4.20;99.90;;;;;;4978410;28;20033;-84
2021/12/02 06:01:11;;;;;;;10.68;3.20;;;4.20;99.90;;;;;;4978476;28;20101;-84
2021/12/02 06:03:38;;;;;;;7.07;2.55;;;4.20;99.90;;;;;;4978307;28;20129;-84
2021/12/02 06:06:07;;;;;;;9.32;2.70;;;4.20;99.90;;;;;;4977621;28;20053;-85
2021/12/02 06:08:33;;;;;;;11.63;3.00;;;4.20;99.90;;;;;;4996640;28;20037;-84
2021/12/02 06:10:59;;;;;;;8.82;2.90;;;4.10;99.90;;;;;;5011789;28;20040;-84
2021/12/02 06:13:26;;;;;;;6.35;2.53;;;4.10;99.90;;;;;;4974459;28;20030;-84
2021/12/02 06:15:51;;;;;;;4.65;2.50;;;4.20;99.90;;;;;;4991634;28;20153;-84
2021/12/02 06:18:17;;;;;;;4.07;2.17;;;4.10;99.90;;;;;;4977718;28;20060;-85
2021/12/02 06:20:43;;;;;;;4.30;2.17;;;4.10;99.90;;;;;;4975696;28;20042;-85
2021/12/02 06:23:08;;;;;;;11.98;2.33;;;4.10;99.90;;;;;;4985580;28;20029;-84
2021/12/02 06:28:03;;;;;;;9.77;2.10;;;4.10;99.90;;;;;;5000432;28;20505;-84
2021/12/02 06:30:29;;;;;;;4.95;1.88;;;4.10;99.90;;;;;;5001036;28;20061;-85
2021/12/02 06:32:55;;;;;;;9.57;2.00;;;4.10;99.90;;;;;;5000685;28;20057;-85
2021/12/02 06:35:21;;;;;;;7.47;2.05;;;4.10;99.90;;;;;;4983740;28;20118;-85
2021/12/02 06:37:46;;;;;;;5.93;2.08;;;4.00;99.90;;;;;;4983952;28;20033;-84
2021/12/02 06:40:13;;;;;;;3.83;2.30;;;4.00;99.90;;;;;;4984592;28;20036;-86
2021/12/02 06:42:41;;;;;;;7.22;2.15;;;4.00;99.90;;;;;;4968749;28;20034;-85
2021/12/02 06:45:08;;;;;;;5.15;1.77;;;4.00;99.90;;;;;;5000247;28;20022;-85
2021/12/02 06:47:39;;;;;;;5.45;2.20;;;4.00;99.90;;;;;;5018235;28;20025;-84
2021/12/02 06:50:09;;;;;;;2.53;1.83;;;4.00;99.90;;;;;;4985956;28;20029;-85
2021/12/02 06:52:34;;;;;;;9.93;2.50;;;4.00;99.90;;;;;;5001064;28;20022;-85
2021/12/02 06:55:00;;;;;;;4.47;1.80;;;4.00;99.90;;;;;;4983885;28;20057;-84
2021/12/02 06:57:26;;;;;;;4.18;1.42;;;3.90;99.90;;;;;;4967372;28;20038;-84
2021/12/02 06:59:51;;;;;;;6.10;2.17;;;3.90;99.90;;;;;;5000350;28;20427;-84
2021/12/02 07:02:18;;;;;;;2.90;1.90;;;3.90;99.90;;;;;;4984571;28;20045;-84
2021/12/02 07:04:44;;;;;;;2.35;1.70;;;3.90;99.90;;;;;;4984692;28;20030;-86
2021/12/02 07:07:10;;;;;;;4.72;1.52;;;3.90;99.90;;;;;;4984981;28;20037;-86
2021/12/02 07:09:36;;;;;;;3.17;1.42;;;3.90;99.90;;;;;;4981713;28;20034;-85
2021/12/02 07:12:01;;;;;;;2.70;1.30;;;3.90;99.90;;;;;;5000262;28;20156;-84
2021/12/02 07:14:28;;;;;;;4.90;1.45;;;3.90;99.90;;;;;;4999484;28;20064;-83
2021/12/02 07:16:54;;;;;;;3.22;1.95;;;3.80;99.90;;;;;;4983792;28;20038;-84
2021/12/02 07:19:19;;;;;;;2.05;1.10;;;3.80;99.90;;;;;;5000867;28;20033;-85
2021/12/02 07:21:45;;;;;;;2.95;1.65;;;3.80;99.90;;;;;;5001398;28;20037;-85
2021/12/02 07:24:14;;;;;;;4.10;1.40;;;3.80;99.90;;;;;;5000661;28;20030;-86
2021/12/02 07:26:42;;;;;;;2.70;1.50;;;3.80;99.90;;;;;;4968760;28;20030;-85
2021/12/02 07:29:13;;;;;;;6.72;1.33;;;3.80;99.90;;;;;;4968966;28;20458;-85
2021/12/02 07:31:40;;;;;;;3.10;1.40;;;3.80;99.90;;;;;;4970059;28;20029;-85
2021/12/02 07:34:07;;;;;;;3.53;1.48;;;3.80;99.90;;;;;;4984265;28;20450;-84
2021/12/02 07:36:33;;;;;;;3.78;1.65;;;3.80;99.90;;;;;;4982481;28;20044;-85
2021/12/02 07:39:06;;;;;;;4.43;1.58;;;3.80;99.90;;;;;;4997430;28;20113;-84
2021/12/02 07:41:32;;;;;;;2.95;1.50;;;3.80;99.90;;;;;;4980268;28;20034;-84
2021/12/02 07:43:58;;;;;;;3.65;1.52;;;3.80;99.90;;;;;;4979274;28;20056;-84
2021/12/02 07:46:24;;;;;;;5.20;1.45;;;3.80;99.90;;;;;;4975723;28;20026;-84
2021/12/02 07:48:50;;;;;;;3.58;1.38;;;3.80;99.90;;;;;;4960800;28;20040;-84
2021/12/02 07:51:16;;;;;;;3.30;1.38;;;3.80;99.90;;;;;;4976595;28;20029;-84
2021/12/02 07:53:47;;;;;;;2.60;1.60;;;3.80;99.90;;;;;;4976550;28;20038;-84
2021/12/02 07:56:16;;;;;;;1.90;1.05;;;3.80;99.90;;;;;;4959464;28;20085;-84
2021/12/02 07:58:47;;;;;;;1.80;1.30;;;3.80;99.90;;;;;;4992519;28;20019;-84
2021/12/02 08:01:14;;;;;;;1.20;0.98;;;3.80;99.90;;;;;;4993715;28;20100;-85
2021/12/02 08:03:47;;;;;;;2.10;1.27;;;3.80;99.90;;;;;;4976352;28;20121;-84
2021/12/02 08:06:14;;;;;;;1.38;1.00;;;3.70;99.90;;;;;;4960243;28;21009;-84
2021/12/02 08:08:41;;;;;;;1.63;0.90;;;3.70;99.90;;;;;;4976254;28;20026;-84
2021/12/02 08:11:07;;;;;;;2.05;0.90;;;3.80;99.90;;;;;;4978907;28;20023;-84
2021/12/02 08:13:33;;;;;;;7.82;1.08;;;3.80;99.90;;;;;;4975853;28;20022;-84
2021/12/02 08:15:59;;;;;;;1.77;0.70;;;3.80;99.90;;;;;;4993016;28;20487;-84
2021/12/02 08:18:24;;;;;;;1.52;1.15;;;3.80;99.90;;;;;;4959557;28;20054;-84
2021/12/02 08:20:50;;;;;;;1.70;1.10;;;3.80;99.90;;;;;;4960060;28;20520;-84
2021/12/02 08:23:18;;;;;;;4.07;1.17;;;3.80;99.90;;;;;;4961578;28;20057;-84
2021/12/02 08:25:44;;;;;;;3.22;1.10;;;3.80;99.90;;;;;;4994236;28;20027;-85
2021/12/02 08:28:09;;;;;;;2.80;1.10;;;3.90;99.90;;;;;;4993494;28;20072;-84
2021/12/02 08:30:37;;;;;;;1.90;1.25;;;3.90;99.90;;;;;;4959685;28;20080;-84
2021/12/02 08:33:03;;;;;;;1.83;1.05;;;3.90;99.90;;;;;;4975378;28;20050;-84
2021/12/02 08:35:30;;;;;;;1.73;1.20;;;3.90;99.90;;;;;;4988478;28;20026;-84
2021/12/02 08:38:03;;;;;;;1.70;1.08;;;3.90;99.90;;;;;;4994647;28;20057;-84
2021/12/02 08:40:37;;;;;;;5.78;0.93;;;3.90;99.90;;;;;;4980793;28;20044;-83
2021/12/02 08:43:12;;;;;;;2.65;1.10;;;4.00;99.90;;;;;;4994800;28;20058;-84
2021/12/02 08:45:40;;;;;;;5.22;1.45;;;4.00;99.90;;;;;;4977817;28;20613;-85
2021/12/02 08:48:06;;;;;;;2.20;1.23;;;4.00;99.90;;;;;;4977854;28;20029;-84
2021/12/02 08:50:34;;;;;;;4.70;1.33;;;4.00;99.90;;;;;;4959270;28;20026;-84
2021/12/02 08:53:01;;;;;;;5.50;1.90;;;4.00;99.90;;;;;;4975192;28;20027;-84
2021/12/02 08:55:29;;;;;;;1.90;1.17;;;4.00;99.90;;;;;;4975095;28;20030;-84
2021/12/02 08:57:55;;;;;;;2.83;1.17;;;4.00;99.90;;;;;;4978104;28;20041;-83
2021/12/02 09:00:32;;;;;;;3.58;0.90;;;4.00;99.90;;;;;;4994675;28;20033;-84
2021/12/02 09:02:57;;;;;;;4.20;1.85;;;4.10;99.90;;;;;;4994527;28;20085;-84
2021/12/02 09:05:23;;;;;;;2.40;1.10;;;4.10;99.90;;;;;;4977493;28;20034;-84
2021/12/02 09:07:49;;;;;;;5.78;1.02;;;4.10;99.90;;;;;;4994051;28;20226;-84
2021/12/02 09:10:15;;;;;;;3.38;0.93;;;4.20;99.90;;;;;;4994630;28;20021;-84
2021/12/02 09:12:42;;;;;;;2.58;1.23;;;4.20;99.90;;;;;;4994302;28;20376;-84
2021/12/02 09:15:08;;;;;;;5.57;1.02;;;4.20;99.90;;;;;;4993751;28;20063;-84
2021/12/02 09:17:35;;;;;;;1.65;0.80;;;4.20;99.90;;;;;;4993642;28;20026;-84
2021/12/02 09:20:02;;;;;;;4.18;1.13;;;4.20;99.90;;;;;;4994336;28;20109;-84
2021/12/02 09:22:27;;;;;;;1.45;0.70;;;4.20;99.90;;;;;;4994317;28;20502;-84
2021/12/02 09:24:53;;;;;;;1.50;1.00;;;4.20;99.90;;;;;;4993331;28;20121;-84
2021/12/02 09:27:19;;;;;;;1.05;0.80;;;4.20;99.90;;;;;;4977553;28;20105;-83
2021/12/02 09:29:44;;;;;;;1.23;0.90;;;4.10;99.90;;;;;;4982936;28;20034;-84
2021/12/02 09:32:11;;;;;;;4.15;1.20;;;4.20;99.90;;;;;;4968585;28;20022;-83
2021/12/02 09:34:38;;;;;;;2.88;1.23;;;4.10;99.90;;;;;;4993910;28;20069;-84
2021/12/02 09:37:03;;;;;;;2.50;1.55;;;4.10;99.90;;;;;;4977682;28;20038;-84
2021/12/02 09:39:31;;;;;;;2.70;1.10;;;4.10;99.90;;;;;;4994041;28;20084;-84
2021/12/02 09:41:58;;;;;;;4.90;1.20;;;4.20;99.90;;;;;;4994155;28;20561;-84
2021/12/02 09:44:24;;;;;;;1.05;0.95;;;4.30;99.90;;;;;;5011283;28;20068;-84
2021/12/02 09:46:50;;;;;;;3.75;1.05;;;4.30;99.90;;;;;;4961192;28;20057;-84
2021/12/02 09:49:16;;;;;;;1.27;1.17;;;4.40;99.90;;;;;;4977674;28;20054;-84
2021/12/02 09:54:20;;;;;;;3.03;1.20;;;4.50;99.90;;;;;;5011082;28;20057;-84
2021/12/02 09:56:49;;;;;;;2.53;1.02;;;4.50;99.90;;;;;;4992687;28;20087;-84
2021/12/02 09:59:27;;;;;;;6.45;0.98;;;4.50;99.90;;;;;;4993893;28;20029;-85
2021/12/02 10:01:59;;;;;;;1.92;1.08;;;4.50;99.90;;;;;;4978767;28;20030;-84
2021/12/02 10:04:26;;;;;;;6.72;1.02;;;4.50;99.90;;;;;;4977652;28;20030;-84
2021/12/02 10:10:06;;;;;;;4.75;1.20;;;4.60;99.90;;;;;;4959120;28;20189;-84
2021/12/02 10:12:35;;;;;;;3.13;1.00;;;4.60;99.90;;;;;;4995039;28;20048;-84
2021/12/02 10:15:07;;;;;;;1.65;0.75;;;4.70;99.90;;;;;;4992738;28;20026;-84
2021/12/02 10:17:38;;;;;;;2.72;0.70;;;4.70;99.90;;;;;;4993221;28;20061;-84
2021/12/02 10:23:01;;;;;;;2.95;1.17;;;5.10;99.90;;;;;;5011351;28;20030;-84
2021/12/02 10:25:31;;;;;;;2.58;1.08;;;5.20;99.90;;;;;;5037497;23;20508;-86
2021/12/02 10:28:11;;;;;;;2.72;1.33;;;5.20;99.90;;;;;;5051766;28;20024;-87
2021/12/02 10:30:43;;;;;;;2.35;0.88;;;5.10;99.90;;;;;;5052567;28;20082;-87
2021/12/02 10:33:09;;;;;;;1.88;1.10;;;5.00;99.90;;;;;;5036362;28;20028;-88
2021/12/02 10:35:46;;;;;;;2.17;0.77;;;5.00;99.90;;;;;;5051998;28;20123;-87
2021/12/02 10:38:35;;;;;;;1.15;0.80;;;4.90;99.90;;;;;;5052626;28;20032;-88
2021/12/02 10:41:06;;;;;;;4.32;0.88;;;4.90;99.90;;;;;;5035898;28;20508;-87
2021/12/02 10:43:32;;;;;;;1.90;0.88;;;4.90;99.90;;;;;;5052478;28;20028;-87
2021/12/02 10:46:16;;;;;;;0.70;0.70;;;4.80;99.90;;;;;;5035292;28;20037;-87
2021/12/02 10:48:50;;;;;;;0.55;0.50;;;4.80;99.90;;;;;;5036252;28;20115;-87
2021/12/02 10:51:36;;;;;;;1.17;0.70;;;4.80;99.90;;;;;;5019892;28;20059;-87
2021/12/02 10:54:07;;;;;;;5.05;0.50;;;4.80;99.90;;;;;;5052240;28;20378;-87
2021/12/02 10:56:38;;;;;;;2.75;0.60;;;4.80;99.90;;;;;;5052120;28;20028;-87
2021/12/02 10:59:28;;;;;;;1.45;0.50;;;4.80;99.90;;;;;;5035865;28;20119;-87
2021/12/02 11:01:57;;;;;;;0.60;0.47;;;4.80;99.90;;;;;;5052291;28;20155;-87
2021/12/02 11:04:23;;;;;;;1.70;0.60;;;4.90;99.90;;;;;;5051922;28;20036;-87
2021/12/02 11:06:51;;;;;;;2.75;0.63;;;4.90;99.90;;;;;;5052059;28;20027;-86
2021/12/02 11:09:24;;;;;;;0.93;0.60;;;4.90;99.90;;;;;;5021246;28;20039;-87
2021/12/02 11:12:15;;;;;;;0.70;0.50;;;4.90;99.90;;;;;;5023095;28;20029;-87
2021/12/02 11:15:01;;;;;;;4.05;0.60;;;4.80;99.90;;;;;;5039972;28;20024;-86
2021/12/02 11:17:30;;;;;;;3.72;0.90;;;4.70;99.90;;;;;;5041772;28;20069;-86
2021/12/02 11:19:57;;;;;;;0.88;0.65;;;4.50;99.90;;;;;;5039311;28;20044;-87
2021/12/02 11:22:25;;;;;;;0.60;0.60;;;4.40;99.90;;;;;;5022821;28;20040;-87
2021/12/02 11:24:51;;;;;;;2.10;0.52;;;4.30;99.90;;;;;;5039140;28;20123;-87
2021/12/02 11:27:39;;;;;;;3.13;0.50;;;4.20;99.90;;;;;;5038916;28;20119;-87
2021/12/02 11:30:14;;;;;;;2.00;0.45;;;4.20;99.90;;;;;;5058136;28;20024;-87
2021/12/02 11:32:49;;;;;;;0.32;0.32;;;4.10;99.90;;;;;;5039738;28;20066;-87
2021/12/02 11:35:27;;;;;;;0.55;0.38;;;4.10;99.90;;;;;;5023556;28;20025;-87
2021/12/02 11:38:02;;;;;;;4.05;0.82;;;4.10;99.90;;;;;;5055440;28;20112;-87
2021/12/02 11:40:35;;;;;;;1.25;0.35;;;4.10;99.90;;;;;;5055555;28;20378;-87
2021/12/02 11:43:01;;;;;;;1.27;0.50;;;4.10;99.90;;;;;;5055442;28;20036;-87
2021/12/02 11:45:29;;;;;;;0.55;0.50;;;4.10;99.90;;;;;;5055215;28;20017;-87
2021/12/02 11:47:55;;;;;;;3.65;0.90;;;4.20;99.90;;;;;;5055629;28;20024;-87
2021/12/02 11:50:23;;;;;;;2.60;0.60;;;4.20;99.90;;;;;;5055255;28;20023;-86
2021/12/02 11:52:49;;;;;;;1.00;0.50;;;4.20;99.90;;;;;;5055457;28;20063;-86
2021/12/02 11:55:23;;;;;;;0.47;0.40;;;4.30;99.90;;;;;;5055350;28;20442;-87
2021/12/02 11:57:50;;;;;;;0.95;0.40;;;4.30;99.90;;;;;;5055099;28;20033;-87
2021/12/02 12:00:19;;;;;;;0.32;0.32;;;4.40;99.90;;;;;;5038447;28;20101;-87
2021/12/02 12:02:53;;;;;;;0.52;0.40;;;4.40;99.90;;;;;;5055035;28;20032;-87
2021/12/02 12:05:42;;;;;;;0.95;0.60;;;4.40;99.90;;;;;;5054693;28;20442;-86
2021/12/02 12:08:08;;;;;;;1.95;0.55;;;4.50;99.90;;;;;;5040185;28;20033;-87
2021/12/02 12:10:38;;;;;;;1.52;0.68;;;4.50;99.90;;;;;;5055009;28;20427;-86
2021/12/02 12:13:12;;;;;;;2.28;1.13;;;4.50;99.90;;;;;;5054925;28;20488;-86
2021/12/02 12:15:42;;;;;;;1.65;0.73;;;4.50;99.90;;;;;;5054804;28;20068;-87
2021/12/02 12:18:09;;;;;;;2.57;1.23;;;4.50;99.90;;;;;;5038311;28;20028;-87
2021/12/02 12:20:58;;;;;;;13.05;3.80;;;4.40;99.90;;;;;;5053810;28;20028;-87
2021/12/02 12:23:45;;;;;;;8.00;3.15;;;4.40;99.90;;;;;;5055182;28;20388;-87
2021/12/02 12:26:24;;;;;;;6.78;2.45;;;4.40;99.90;;;;;;5037924;28;20501;-87
2021/12/02 12:29:08;;;;;;;1.02;0.80;;;4.40;99.90;;;;;;5054812;28;20027;-87
2021/12/02 12:32:00;;;;;;;3.55;1.17;;;4.40;99.90;;;;;;5054455;28;20021;-86
2021/12/02 12:34:30;;;;;;;1.67;0.80;;;4.40;99.90;;;;;;5041467;28;20036;-87
2021/12/02 12:37:01;;;;;;;10.50;3.63;;;4.50;99.90;;;;;;5054097;28;20036;-87
2021/12/02 12:39:32;;;;;;;3.22;1.50;;;4.60;99.90;;;;;;5022016;28;20028;-87
2021/12/02 12:42:15;;;;;;;4.22;1.33;;;4.60;99.90;;;;;;5054300;28;20028;-87
2021/12/02 12:44:58;;;;;;;9.30;2.55;;;4.70;99.90;;;;;;5054011;28;20024;-86
2021/12/02 12:47:43;;;;;;;3.50;1.25;;;4.70;99.90;;;;;;5037881;28;20128;-87
2021/12/02 12:50:36;;;;;;;2.97;1.13;;;4.80;99.90;;;;;;5054107;28;20024;-86
2021/12/02 12:53:04;;;;;;;3.60;1.40;;;4.80;99.90;;;;;;5054088;28;20013;-86
2021/12/02 12:55:52;;;;;;;5.28;0.63;;;4.70;99.90;;;;;;5053706;28;20025;-86
2021/12/02 12:58:30;;;;;;;3.05;0.50;;;4.60;99.90;;;;;;5040955;28;20033;-87
2021/12/02 13:01:01;;;;;;;0.28;0.28;;;4.40;99.90;;;;;;5053756;28;20024;-87
2021/12/02 13:03:31;;;;;;;1.17;0.80;;;4.20;99.90;;;;;;5038004;28;20377;-87
2021/12/02 13:06:19;;;;;;;0.65;0.40;;;4.10;99.90;;;;;;5071095;28;20042;-87
2021/12/02 13:08:56;;;;;;;1.52;0.70;;;4.10;99.90;;;;;;5056270;28;20086;-87
2021/12/02 13:11:31;;;;;;;1.58;0.50;;;4.10;99.90;;;;;;5037360;28;20487;-87
2021/12/02 13:13:58;;;;;;;1.17;0.43;;;4.20;99.90;;;;;;5038240;28;20024;-87
2021/12/02 13:16:31;;;;;;;0.47;0.47;;;4.30;99.90;;;;;;5071128;28;20028;-86
2021/12/02 13:18:59;;;;;;;1.65;0.40;;;4.30;99.90;;;;;;5053705;28;20102;-87
2021/12/02 13:21:31;;;;;;;4.28;0.85;;;4.40;99.90;;;;;;5037159;28;20400;-86
2021/12/02 13:24:00;;;;;;;3.05;0.43;;;4.30;99.90;;;;;;5053491;28;20017;-86
2021/12/02 13:26:30;;;;;;;0.75;0.60;;;4.30;99.90;;;;;;5036358;28;20567;-87
2021/12/02 13:28:59;;;;;;;0.40;0.30;;;4.20;99.90;;;;;;5053450;28;20120;-87
2021/12/02 13:31:26;;;;;;;2.28;0.50;;;4.10;99.90;;;;;;5053306;28;20585;-87
2021/12/02 13:33:57;;;;;;;1.25;0.47;;;4.00;99.90;;;;;;5036840;28;20032;-86
2021/12/02 13:36:39;;;;;;;2.45;0.63;;;4.00;99.90;;;;;;5036463;28;20127;-87